sensor_id;sensor_type;location;lat;lon;timestamp;P1;durP1;ratioP1;P2;durP2;ratioP2
77726;SDS011;68312;53.502;10.030;2023-07-20T00:02:03;2.25;;;1.30;;
77726;SDS011;68312;53.502;10.030;2023-07-20T00:04:30;3.30;;;1.50;;
77726;SDS011;68312;53.502;10.030;2023-07-20T00:06:56;3.13;;;1.55;;
77726;SDS011;68312;53.502;10.030;2023-07-20T00:09:21;3.50;;;1.55;;
77726;SDS011;68312;53.502;10.030;2023-07-20T00:11:50;2.88;;;1.60;;
77726;SDS011;68312;53.502;10.030;2023-07-20T00:14:18;2.72;;;1.27;;
77726;SDS011;68312;53.502;10.030;2023-07-20T00:16:47;3.10;;;1.42;;
77726;SDS011;68312;53.502;10.030;2023-07-20T00:19:21;2.85;;;1.27;;
77726;SDS011;68312;53.502;10.030;2023-07-20T00:21:48;2.83;;;1.65;;
77726;SDS011;68312;53.502;10.030;2023-07-20T00:24:14;2.65;;;1.58;;
77726;SDS011;68312;53.502;10.030;2023-07-20T00:26:39;3.33;;;1.48;;
77726;SDS011;68312;53.502;10.030;2023-07-20T00:29:05;3.80;;;1.75;;
77726;SDS011;68312;53.502;10.030;2023-07-20T00:31:30;2.88;;;1.58;;
77726;SDS011;68312;53.502;10.030;2023-07-20T00:33:56;3.47;;;1.83;;
77726;SDS011;68312;53.502;10.030;2023-07-20T00:36:21;2.30;;;1.50;;
77726;SDS011;68312;53.502;10.030;2023-07-20T00:38:46;2.25;;;1.50;;
77726;SDS011;68312;53.502;10.030;2023-07-20T00:41:12;2.83;;;1.60;;
77726;SDS011;68312;53.502;10.030;2023-07-20T00:43:38;2.53;;;1.60;;
77726;SDS011;68312;53.502;10.030;2023-07-20T00:46:03;2.55;;;1.40;;
77726;SDS011;68312;53.502;10.030;2023-07-20T00:48:30;4.57;;;1.52;;
77726;SDS011;68312;53.502;10.030;2023-07-20T00:50:56;2.10;;;1.40;;
77726;SDS011;68312;53.502;10.030;2023-07-20T00:53:25;2.20;;;1.23;;
77726;SDS011;68312;53.502;10.030;2023-07-20T00:55:51;2.10;;;1.40;;
77726;SDS011;68312;53.502;10.030;2023-07-20T00:58:17;5.38;;;1.60;;
77726;SDS011;68312;53.502;10.030;2023-07-20T01:00:43;2.10;;;1.40;;
77726;SDS011;68312;53.502;10.030;2023-07-20T01:03:08;4.03;;;1.60;;
77726;SDS011;68312;53.502;10.030;2023-07-20T01:08:40;3.25;;;1.50;;
77726;SDS011;68312;53.502;10.030;2023-07-20T01:11:33;3.47;;;1.50;;
77726;SDS011;68312;53.502;10.030;2023-07-20T01:14:08;3.50;;;1.88;;
77726;SDS011;68312;53.502;10.030;2023-07-20T01:16:36;2.50;;;1.80;;
77726;SDS011;68312;53.502;10.030;2023-07-20T01:19:02;2.88;;;1.75;;
77726;SDS011;68312;53.502;10.030;2023-07-20T01:21:44;3.25;;;2.20;;
77726;SDS011;68312;53.502;10.030;2023-07-20T01:24:39;3.75;;;2.25;;
77726;SDS011;68312;53.502;10.030;2023-07-20T01:27:57;3.70;;;2.33;;
77726;SDS011;68312;53.502;10.030;2023-07-20T01:33:08;3.50;;;2.45;;
77726;SDS011;68312;53.502;10.030;2023-07-20T01:35:38;3.83;;;1.85;;
77726;SDS011;68312;53.502;10.030;2023-07-20T01:38:06;5.88;;;2.28;;
77726;SDS011;68312;53.502;10.030;2023-07-20T01:40:34;6.07;;;2.13;;
77726;SDS011;68312;53.502;10.030;2023-07-20T01:43:00;4.47;;;2.22;;
77726;SDS011;68312;53.502;10.030;2023-07-20T01:48:19;4.63;;;2.75;;
77726;SDS011;68312;53.502;10.030;2023-07-20T01:50:45;5.53;;;2.40;;
77726;SDS011;68312;53.502;10.030;2023-07-20T01:53:11;4.68;;;2.80;;
77726;SDS011;68312;53.502;10.030;2023-07-20T01:55:36;4.15;;;2.45;;
77726;SDS011;68312;53.502;10.030;2023-07-20T01:58:01;5.60;;;2.90;;
77726;SDS011;68312;53.502;10.030;2023-07-20T02:00:28;4.45;;;2.65;;
77726;SDS011;68312;53.502;10.030;2023-07-20T02:02:54;5.20;;;3.00;;
77726;SDS011;68312;53.502;10.030;2023-07-20T02:05:19;5.57;;;2.47;;
77726;SDS011;68312;53.502;10.030;2023-07-20T02:07:45;5.97;;;2.88;;
77726;SDS011;68312;53.502;10.030;2023-07-20T02:10:10;5.88;;;3.17;;
77726;SDS011;68312;53.502;10.030;2023-07-20T02:12:35;5.30;;;2.80;;
77726;SDS011;68312;53.502;10.030;2023-07-20T02:15:02;6.40;;;2.85;;
77726;SDS011;68312;53.502;10.030;2023-07-20T02:17:28;5.38;;;2.92;;
77726;SDS011;68312;53.502;10.030;2023-07-20T02:19:54;5.25;;;3.38;;
77726;SDS011;68312;53.502;10.030;2023-07-20T02:22:21;6.07;;;3.10;;
77726;SDS011;68312;53.502;10.030;2023-07-20T02:24:46;7.28;;;3.25;;
77726;SDS011;68312;53.502;10.030;2023-07-20T02:27:12;7.75;;;3.35;;
77726;SDS011;68312;53.502;10.030;2023-07-20T02:29:38;5.63;;;3.47;;
77726;SDS011;68312;53.502;10.030;2023-07-20T02:32:04;5.78;;;3.17;;
77726;SDS011;68312;53.502;10.030;2023-07-20T02:37:23;4.65;;;2.88;;
77726;SDS011;68312;53.502;10.030;2023-07-20T02:39:49;5.85;;;2.97;;
77726;SDS011;68312;53.502;10.030;2023-07-20T02:42:15;4.15;;;2.70;;
77726;SDS011;68312;53.502;10.030;2023-07-20T02:44:40;3.60;;;2.28;;
77726;SDS011;68312;53.502;10.030;2023-07-20T02:47:06;5.72;;;2.60;;
77726;SDS011;68312;53.502;10.030;2023-07-20T02:49:31;3.25;;;2.50;;
77726;SDS011;68312;53.502;10.030;2023-07-20T02:51:57;4.00;;;2.60;;
77726;SDS011;68312;53.502;10.030;2023-07-20T02:54:22;7.32;;;3.03;;
77726;SDS011;68312;53.502;10.030;2023-07-20T02:56:48;4.18;;;2.60;;
77726;SDS011;68312;53.502;10.030;2023-07-20T02:59:13;4.00;;;2.38;;
77726;SDS011;68312;53.502;10.030;2023-07-20T03:01:38;5.95;;;2.70;;
77726;SDS011;68312;53.502;10.030;2023-07-20T03:04:04;5.38;;;2.80;;
77726;SDS011;68312;53.502;10.030;2023-07-20T03:06:29;4.80;;;3.00;;
77726;SDS011;68312;53.502;10.030;2023-07-20T03:08:55;3.75;;;2.28;;
77726;SDS011;68312;53.502;10.030;2023-07-20T03:11:21;4.95;;;3.03;;
77726;SDS011;68312;53.502;10.030;2023-07-20T03:13:47;6.30;;;2.90;;
77726;SDS011;68312;53.502;10.030;2023-07-20T03:16:13;5.45;;;2.92;;
77726;SDS011;68312;53.502;10.030;2023-07-20T03:18:42;6.70;;;2.80;;
77726;SDS011;68312;53.502;10.030;2023-07-20T03:21:08;6.10;;;2.45;;
77726;SDS011;68312;53.502;10.030;2023-07-20T03:23:38;4.07;;;2.50;;
77726;SDS011;68312;53.502;10.030;2023-07-20T03:26:05;3.80;;;2.50;;
77726;SDS011;68312;53.502;10.030;2023-07-20T03:28:33;3.95;;;2.15;;
77726;SDS011;68312;53.502;10.030;2023-07-20T03:31:02;3.05;;;1.88;;
77726;SDS011;68312;53.502;10.030;2023-07-20T03:33:28;2.85;;;1.98;;
77726;SDS011;68312;53.502;10.030;2023-07-20T03:35:55;3.65;;;2.00;;
77726;SDS011;68312;53.502;10.030;2023-07-20T03:38:21;5.90;;;2.28;;
77726;SDS011;68312;53.502;10.030;2023-07-20T03:40:51;4.45;;;1.88;;
77726;SDS011;68312;53.502;10.030;2023-07-20T03:43:24;3.55;;;1.80;;
77726;SDS011;68312;53.502;10.030;2023-07-20T03:45:51;3.58;;;1.85;;
77726;SDS011;68312;53.502;10.030;2023-07-20T03:48:18;3.95;;;2.08;;
77726;SDS011;68312;53.502;10.030;2023-07-20T03:50:46;3.08;;;1.95;;
77726;SDS011;68312;53.502;10.030;2023-07-20T03:53:14;4.75;;;2.00;;
77726;SDS011;68312;53.502;10.030;2023-07-20T03:55:41;3.88;;;1.90;;
77726;SDS011;68312;53.502;10.030;2023-07-20T03:58:11;3.67;;;2.40;;
77726;SDS011;68312;53.502;10.030;2023-07-20T04:00:37;3.45;;;2.15;;
77726;SDS011;68312;53.502;10.030;2023-07-20T04:03:02;4.47;;;2.30;;
77726;SDS011;68312;53.502;10.030;2023-07-20T04:05:27;4.13;;;2.58;;
77726;SDS011;68312;53.502;10.030;2023-07-20T04:07:53;5.20;;;2.75;;
77726;SDS011;68312;53.502;10.030;2023-07-20T04:10:18;5.75;;;2.92;;
77726;SDS011;68312;53.502;10.030;2023-07-20T04:12:45;5.72;;;2.47;;
77726;SDS011;68312;53.502;10.030;2023-07-20T04:18:14;4.70;;;2.50;;
77726;SDS011;68312;53.502;10.030;2023-07-20T04:20:40;4.65;;;2.08;;
77726;SDS011;68312;53.502;10.030;2023-07-20T04:23:05;3.22;;;2.17;;
77726;SDS011;68312;53.502;10.030;2023-07-20T04:25:31;4.13;;;2.40;;
77726;SDS011;68312;53.502;10.030;2023-07-20T04:28:03;5.47;;;2.53;;
77726;SDS011;68312;53.502;10.030;2023-07-20T04:30:29;3.65;;;2.58;;
77726;SDS011;68312;53.502;10.030;2023-07-20T04:32:55;5.30;;;2.38;;
77726;SDS011;68312;53.502;10.030;2023-07-20T04:38:18;4.15;;;2.15;;
77726;SDS011;68312;53.502;10.030;2023-07-20T04:40:45;5.07;;;2.30;;
77726;SDS011;68312;53.502;10.030;2023-07-20T04:43:13;3.92;;;2.45;;
77726;SDS011;68312;53.502;10.030;2023-07-20T04:45:40;3.67;;;2.25;;
77726;SDS011;68312;53.502;10.030;2023-07-20T04:48:09;4.35;;;2.35;;
77726;SDS011;68312;53.502;10.030;2023-07-20T04:50:37;3.33;;;1.98;;
77726;SDS011;68312;53.502;10.030;2023-07-20T04:53:04;3.40;;;2.20;;
77726;SDS011;68312;53.502;10.030;2023-07-20T04:55:29;3.13;;;1.77;;
77726;SDS011;68312;53.502;10.030;2023-07-20T04:57:55;4.00;;;2.15;;
77726;SDS011;68312;53.502;10.030;2023-07-20T05:00:20;2.92;;;1.88;;
77726;SDS011;68312;53.502;10.030;2023-07-20T05:02:46;3.00;;;2.03;;
77726;SDS011;68312;53.502;10.030;2023-07-20T05:05:14;4.57;;;2.40;;
77726;SDS011;68312;53.502;10.030;2023-07-20T05:07:40;3.70;;;2.15;;
77726;SDS011;68312;53.502;10.030;2023-07-20T05:10:05;3.65;;;2.40;;
77726;SDS011;68312;53.502;10.030;2023-07-20T05:12:32;4.22;;;2.53;;
77726;SDS011;68312;53.502;10.030;2023-07-20T05:14:57;3.90;;;2.40;;
77726;SDS011;68312;53.502;10.030;2023-07-20T05:17:23;3.80;;;2.50;;
77726;SDS011;68312;53.502;10.030;2023-07-20T05:19:49;5.28;;;2.90;;
77726;SDS011;68312;53.502;10.030;2023-07-20T05:22:15;4.40;;;2.90;;
77726;SDS011;68312;53.502;10.030;2023-07-20T05:24:41;7.10;;;2.92;;
77726;SDS011;68312;53.502;10.030;2023-07-20T05:27:07;5.43;;;3.10;;
77726;SDS011;68312;53.502;10.030;2023-07-20T05:29:32;7.82;;;3.60;;
77726;SDS011;68312;53.502;10.030;2023-07-20T05:34:54;7.90;;;3.70;;
77726;SDS011;68312;53.502;10.030;2023-07-20T05:37:20;5.00;;;3.38;;
77726;SDS011;68312;53.502;10.030;2023-07-20T05:39:47;5.50;;;2.95;;
77726;SDS011;68312;53.502;10.030;2023-07-20T05:42:12;6.97;;;3.42;;
77726;SDS011;68312;53.502;10.030;2023-07-20T05:44:38;6.22;;;3.60;;
77726;SDS011;68312;53.502;10.030;2023-07-20T05:47:13;5.85;;;3.40;;
77726;SDS011;68312;53.502;10.030;2023-07-20T05:49:39;5.05;;;3.22;;
77726;SDS011;68312;53.502;10.030;2023-07-20T05:52:04;4.45;;;2.97;;
77726;SDS011;68312;53.502;10.030;2023-07-20T05:54:30;4.88;;;3.03;;
77726;SDS011;68312;53.502;10.030;2023-07-20T05:56:55;4.63;;;2.85;;
77726;SDS011;68312;53.502;10.030;2023-07-20T05:59:21;6.07;;;3.58;;
77726;SDS011;68312;53.502;10.030;2023-07-20T06:01:49;5.88;;;3.38;;
77726;SDS011;68312;53.502;10.030;2023-07-20T06:04:15;7.93;;;3.95;;
77726;SDS011;68312;53.502;10.030;2023-07-20T06:06:40;5.35;;;3.10;;
77726;SDS011;68312;53.502;10.030;2023-07-20T06:09:07;6.88;;;3.50;;
77726;SDS011;68312;53.502;10.030;2023-07-20T06:11:36;5.68;;;3.50;;
77726;SDS011;68312;53.502;10.030;2023-07-20T06:14:03;5.25;;;3.40;;
77726;SDS011;68312;53.502;10.030;2023-07-20T06:16:28;6.22;;;3.13;;
77726;SDS011;68312;53.502;10.030;2023-07-20T06:18:54;5.07;;;3.10;;
77726;SDS011;68312;53.502;10.030;2023-07-20T06:25:01;4.70;;;2.42;;
77726;SDS011;68312;53.502;10.030;2023-07-20T06:27:27;3.38;;;1.90;;
77726;SDS011;68312;53.502;10.030;2023-07-20T06:29:52;3.83;;;2.10;;
77726;SDS011;68312;53.502;10.030;2023-07-20T06:32:17;4.10;;;2.40;;
77726;SDS011;68312;53.502;10.030;2023-07-20T06:34:43;3.63;;;1.80;;
77726;SDS011;68312;53.502;10.030;2023-07-20T06:37:08;5.00;;;1.60;;
77726;SDS011;68312;53.502;10.030;2023-07-20T06:39:34;3.35;;;1.52;;
77726;SDS011;68312;53.502;10.030;2023-07-20T06:41:59;2.72;;;1.38;;
77726;SDS011;68312;53.502;10.030;2023-07-20T06:44:25;2.63;;;1.20;;
77726;SDS011;68312;53.502;10.030;2023-07-20T06:46:50;4.30;;;1.27;;
77726;SDS011;68312;53.502;10.030;2023-07-20T06:49:25;1.92;;;1.10;;
77726;SDS011;68312;53.502;10.030;2023-07-20T06:51:52;3.67;;;1.20;;
77726;SDS011;68312;53.502;10.030;2023-07-20T06:54:18;1.85;;;1.40;;
77726;SDS011;68312;53.502;10.030;2023-07-20T06:56:43;3.72;;;1.20;;
77726;SDS011;68312;53.502;10.030;2023-07-20T06:59:10;4.35;;;1.27;;
77726;SDS011;68312;53.502;10.030;2023-07-20T07:01:35;1.85;;;1.00;;
77726;SDS011;68312;53.502;10.030;2023-07-20T07:04:01;2.92;;;1.10;;
77726;SDS011;68312;53.502;10.030;2023-07-20T07:06:26;2.22;;;1.10;;
77726;SDS011;68312;53.502;10.030;2023-07-20T07:08:52;2.22;;;1.10;;
77726;SDS011;68312;53.502;10.030;2023-07-20T07:11:18;6.43;;;1.60;;
77726;SDS011;68312;53.502;10.030;2023-07-20T07:13:43;3.22;;;1.10;;
77726;SDS011;68312;53.502;10.030;2023-07-20T07:16:11;2.80;;;1.10;;
77726;SDS011;68312;53.502;10.030;2023-07-20T07:18:39;4.60;;;1.20;;
77726;SDS011;68312;53.502;10.030;2023-07-20T07:21:05;1.80;;;1.10;;
77726;SDS011;68312;53.502;10.030;2023-07-20T07:23:30;2.85;;;1.00;;
77726;SDS011;68312;53.502;10.030;2023-07-20T07:25:56;3.00;;;1.00;;
77726;SDS011;68312;53.502;10.030;2023-07-20T07:28:21;3.17;;;1.20;;
77726;SDS011;68312;53.502;10.030;2023-07-20T07:30:46;4.47;;;1.10;;
77726;SDS011;68312;53.502;10.030;2023-07-20T07:33:12;5.28;;;1.30;;
77726;SDS011;68312;53.502;10.030;2023-07-20T07:39:18;3.30;;;1.00;;
77726;SDS011;68312;53.502;10.030;2023-07-20T07:41:45;4.38;;;1.05;;
77726;SDS011;68312;53.502;10.030;2023-07-20T07:44:10;2.60;;;0.88;;
77726;SDS011;68312;53.502;10.030;2023-07-20T07:46:36;3.42;;;1.10;;
77726;SDS011;68312;53.502;10.030;2023-07-20T07:49:02;3.33;;;1.05;;
77726;SDS011;68312;53.502;10.030;2023-07-20T07:51:27;1.90;;;0.85;;
77726;SDS011;68312;53.502;10.030;2023-07-20T07:53:53;2.75;;;1.00;;
77726;SDS011;68312;53.502;10.030;2023-07-20T07:56:18;4.45;;;1.30;;
77726;SDS011;68312;53.502;10.030;2023-07-20T07:58:48;3.97;;;1.05;;
77726;SDS011;68312;53.502;10.030;2023-07-20T08:01:17;2.00;;;0.98;;
77726;SDS011;68312;53.502;10.030;2023-07-20T08:03:44;5.57;;;2.22;;
77726;SDS011;68312;53.502;10.030;2023-07-20T08:06:12;4.40;;;1.15;;
77726;SDS011;68312;53.502;10.030;2023-07-20T08:08:41;2.50;;;1.10;;
77726;SDS011;68312;53.502;10.030;2023-07-20T08:11:07;5.00;;;1.20;;
77726;SDS011;68312;53.502;10.030;2023-07-20T08:13:33;3.67;;;1.13;;
77726;SDS011;68312;53.502;10.030;2023-07-20T08:15:59;2.42;;;1.20;;
77726;SDS011;68312;53.502;10.030;2023-07-20T08:18:24;2.50;;;1.10;;
77726;SDS011;68312;53.502;10.030;2023-07-20T08:20:49;3.47;;;1.60;;
77726;SDS011;68312;53.502;10.030;2023-07-20T08:23:15;4.65;;;1.08;;
77726;SDS011;68312;53.502;10.030;2023-07-20T08:25:41;3.13;;;1.35;;
77726;SDS011;68312;53.502;10.030;2023-07-20T08:28:13;3.13;;;1.30;;
77726;SDS011;68312;53.502;10.030;2023-07-20T08:30:43;5.95;;;1.80;;
77726;SDS011;68312;53.502;10.030;2023-07-20T08:33:13;4.53;;;1.00;;
77726;SDS011;68312;53.502;10.030;2023-07-20T08:35:40;3.47;;;1.30;;
77726;SDS011;68312;53.502;10.030;2023-07-20T08:38:06;3.40;;;1.20;;
77726;SDS011;68312;53.502;10.030;2023-07-20T08:40:39;4.60;;;1.10;;
77726;SDS011;68312;53.502;10.030;2023-07-20T08:43:10;4.22;;;1.17;;
77726;SDS011;68312;53.502;10.030;2023-07-20T08:45:37;5.53;;;1.10;;
77726;SDS011;68312;53.502;10.030;2023-07-20T08:48:05;3.80;;;1.13;;
77726;SDS011;68312;53.502;10.030;2023-07-20T08:50:32;5.18;;;1.35;;
77726;SDS011;68312;53.502;10.030;2023-07-20T08:52:59;4.07;;;1.20;;
77726;SDS011;68312;53.502;10.030;2023-07-20T08:58:39;4.55;;;1.42;;
77726;SDS011;68312;53.502;10.030;2023-07-20T09:01:06;4.22;;;1.33;;
77726;SDS011;68312;53.502;10.030;2023-07-20T09:03:32;4.10;;;1.23;;
77726;SDS011;68312;53.502;10.030;2023-07-20T09:05:58;4.10;;;1.42;;
77726;SDS011;68312;53.502;10.030;2023-07-20T09:08:23;3.33;;;1.42;;
77726;SDS011;68312;53.502;10.030;2023-07-20T09:10:49;3.20;;;1.17;;
77726;SDS011;68312;53.502;10.030;2023-07-20T09:13:15;4.30;;;1.27;;
77726;SDS011;68312;53.502;10.030;2023-07-20T09:16:02;3.65;;;1.20;;
77726;SDS011;68312;53.502;10.030;2023-07-20T09:18:29;3.42;;;1.00;;
77726;SDS011;68312;53.502;10.030;2023-07-20T09:21:03;3.05;;;1.10;;
77726;SDS011;68312;53.502;10.030;2023-07-20T09:23:31;4.47;;;1.08;;
77726;SDS011;68312;53.502;10.030;2023-07-20T09:26:09;4.43;;;1.13;;
77726;SDS011;68312;53.502;10.030;2023-07-20T09:28:41;3.13;;;1.00;;
77726;SDS011;68312;53.502;10.030;2023-07-20T09:31:16;2.83;;;0.80;;
77726;SDS011;68312;53.502;10.030;2023-07-20T09:33:47;4.15;;;1.08;;
77726;SDS011;68312;53.502;10.030;2023-07-20T09:36:15;4.32;;;1.20;;
77726;SDS011;68312;53.502;10.030;2023-07-20T09:38:44;5.10;;;1.00;;
77726;SDS011;68312;53.502;10.030;2023-07-20T09:41:15;3.35;;;0.95;;
77726;SDS011;68312;53.502;10.030;2023-07-20T09:43:43;4.65;;;1.17;;
77726;SDS011;68312;53.502;10.030;2023-07-20T09:46:11;2.03;;;0.95;;
77726;SDS011;68312;53.502;10.030;2023-07-20T09:48:37;3.60;;;0.90;;
77726;SDS011;68312;53.502;10.030;2023-07-20T09:51:02;2.55;;;0.70;;
77726;SDS011;68312;53.502;10.030;2023-07-20T09:53:30;2.90;;;0.90;;
77726;SDS011;68312;53.502;10.030;2023-07-20T09:55:58;7.30;;;1.25;;
77726;SDS011;68312;53.502;10.030;2023-07-20T09:58:25;1.65;;;0.93;;
77726;SDS011;68312;53.502;10.030;2023-07-20T10:00:52;4.10;;;1.00;;
77726;SDS011;68312;53.502;10.030;2023-07-20T10:03:22;1.77;;;0.70;;
77726;SDS011;68312;53.502;10.030;2023-07-20T10:09:35;3.38;;;0.95;;
77726;SDS011;68312;53.502;10.030;2023-07-20T10:12:04;2.30;;;0.80;;
77726;SDS011;68312;53.502;10.030;2023-07-20T10:14:32;3.63;;;0.70;;
77726;SDS011;68312;53.502;10.030;2023-07-20T10:17:05;3.08;;;0.73;;
77726;SDS011;68312;53.502;10.030;2023-07-20T10:19:43;3.08;;;0.90;;
77726;SDS011;68312;53.502;10.030;2023-07-20T10:22:14;1.60;;;0.70;;
77726;SDS011;68312;53.502;10.030;2023-07-20T10:24:45;3.80;;;0.80;;
77726;SDS011;68312;53.502;10.030;2023-07-20T10:27:12;3.85;;;0.90;;
77726;SDS011;68312;53.502;10.030;2023-07-20T10:29:40;3.40;;;0.70;;
77726;SDS011;68312;53.502;10.030;2023-07-20T10:32:07;4.35;;;0.65;;
77726;SDS011;68312;53.502;10.030;2023-07-20T10:34:34;2.40;;;0.80;;
77726;SDS011;68312;53.502;10.030;2023-07-20T10:36:59;2.08;;;0.50;;
77726;SDS011;68312;53.502;10.030;2023-07-20T10:39:26;2.47;;;0.80;;
77726;SDS011;68312;53.502;10.030;2023-07-20T10:42:09;2.47;;;0.65;;
77726;SDS011;68312;53.502;10.030;2023-07-20T10:44:39;4.45;;;0.80;;
77726;SDS011;68312;53.502;10.030;2023-07-20T10:47:08;2.97;;;0.70;;
77726;SDS011;68312;53.502;10.030;2023-07-20T10:49:57;2.13;;;0.68;;
77726;SDS011;68312;53.502;10.030;2023-07-20T10:52:23;4.07;;;0.68;;
77726;SDS011;68312;53.502;10.030;2023-07-20T10:54:49;3.95;;;0.77;;
77726;SDS011;68312;53.502;10.030;2023-07-20T10:57:21;3.00;;;0.63;;
77726;SDS011;68312;53.502;10.030;2023-07-20T11:00:08;1.70;;;0.40;;
77726;SDS011;68312;53.502;10.030;2023-07-20T11:02:58;2.05;;;0.60;;
77726;SDS011;68312;53.502;10.030;2023-07-20T11:05:37;1.88;;;0.70;;
77726;SDS011;68312;53.502;10.030;2023-07-20T11:08:05;1.77;;;0.60;;
77726;SDS011;68312;53.502;10.030;2023-07-20T11:10:36;2.28;;;0.65;;
77726;SDS011;68312;53.502;10.030;2023-07-20T11:13:17;1.58;;;0.47;;
77726;SDS011;68312;53.502;10.030;2023-07-20T11:16:05;3.58;;;0.70;;
77726;SDS011;68312;53.502;10.030;2023-07-20T11:21:50;1.27;;;0.40;;
77726;SDS011;68312;53.502;10.030;2023-07-20T11:24:21;2.00;;;0.50;;
77726;SDS011;68312;53.502;10.030;2023-07-20T11:26:47;1.42;;;0.50;;
77726;SDS011;68312;53.502;10.030;2023-07-20T11:29:17;1.45;;;0.45;;
77726;SDS011;68312;53.502;10.030;2023-07-20T11:31:46;1.58;;;0.50;;
77726;SDS011;68312;53.502;10.030;2023-07-20T11:34:16;0.77;;;0.30;;
77726;SDS011;68312;53.502;10.030;2023-07-20T11:36:44;0.73;;;0.40;;
77726;SDS011;68312;53.502;10.030;2023-07-20T11:39:13;2.10;;;0.60;;
77726;SDS011;68312;53.502;10.030;2023-07-20T11:41:44;2.97;;;0.57;;
77726;SDS011;68312;53.502;10.030;2023-07-20T11:44:15;1.50;;;0.55;;
77726;SDS011;68312;53.502;10.030;2023-07-20T11:50:22;2.25;;;0.50;;
77726;SDS011;68312;53.502;10.030;2023-07-20T11:52:48;4.65;;;0.60;;
77726;SDS011;68312;53.502;10.030;2023-07-20T11:55:14;3.35;;;0.70;;
77726;SDS011;68312;53.502;10.030;2023-07-20T11:57:39;2.63;;;0.68;;
77726;SDS011;68312;53.502;10.030;2023-07-20T12:00:05;2.53;;;0.52;;
77726;SDS011;68312;53.502;10.030;2023-07-20T12:02:36;2.80;;;0.80;;
77726;SDS011;68312;53.502;10.030;2023-07-20T12:05:04;1.92;;;0.70;;
77726;SDS011;68312;53.502;10.030;2023-07-20T12:07:32;2.05;;;0.63;;
77726;SDS011;68312;53.502;10.030;2023-07-20T12:10:08;1.35;;;0.50;;
77726;SDS011;68312;53.502;10.030;2023-07-20T12:16:16;3.20;;;0.63;;
77726;SDS011;68312;53.502;10.030;2023-07-20T12:18:43;6.55;;;0.60;;
77726;SDS011;68312;53.502;10.030;2023-07-20T12:21:09;3.03;;;0.55;;
77726;SDS011;68312;53.502;10.030;2023-07-20T12:23:37;2.00;;;0.40;;
77726;SDS011;68312;53.502;10.030;2023-07-20T12:26:08;4.07;;;0.88;;
77726;SDS011;68312;53.502;10.030;2023-07-20T12:28:38;2.53;;;0.57;;
77726;SDS011;68312;53.502;10.030;2023-07-20T12:31:08;1.65;;;0.40;;
77726;SDS011;68312;53.502;10.030;2023-07-20T12:33:35;3.65;;;0.60;;
77726;SDS011;68312;53.502;10.030;2023-07-20T12:36:01;1.90;;;0.40;;
77726;SDS011;68312;53.502;10.030;2023-07-20T12:38:27;1.02;;;0.40;;
77726;SDS011;68312;53.502;10.030;2023-07-20T12:40:53;2.47;;;0.40;;
77726;SDS011;68312;53.502;10.030;2023-07-20T12:43:22;1.48;;;0.50;;
77726;SDS011;68312;53.502;10.030;2023-07-20T12:45:47;6.80;;;0.88;;
77726;SDS011;68312;53.502;10.030;2023-07-20T12:48:13;3.67;;;0.60;;
77726;SDS011;68312;53.502;10.030;2023-07-20T12:50:38;1.00;;;0.40;;
77726;SDS011;68312;53.502;10.030;2023-07-20T12:53:04;1.48;;;0.57;;
77726;SDS011;68312;53.502;10.030;2023-07-20T12:55:30;3.13;;;0.80;;
77726;SDS011;68312;53.502;10.030;2023-07-20T12:57:57;2.00;;;0.50;;
77726;SDS011;68312;53.502;10.030;2023-07-20T13:00:22;2.60;;;0.63;;
77726;SDS011;68312;53.502;10.030;2023-07-20T13:02:48;3.50;;;0.60;;
77726;SDS011;68312;53.502;10.030;2023-07-20T13:05:14;2.83;;;0.60;;
77726;SDS011;68312;53.502;10.030;2023-07-20T13:07:40;4.47;;;0.75;;
77726;SDS011;68312;53.502;10.030;2023-07-20T13:10:06;3.00;;;1.00;;
77726;SDS011;68312;53.502;10.030;2023-07-20T13:12:34;2.03;;;0.50;;
77726;SDS011;68312;53.502;10.030;2023-07-20T13:18:41;2.20;;;0.60;;
77726;SDS011;68312;53.502;10.030;2023-07-20T13:21:06;1.10;;;0.55;;
77726;SDS011;68312;53.502;10.030;2023-07-20T13:23:35;3.13;;;0.60;;
77726;SDS011;68312;53.502;10.030;2023-07-20T13:26:01;1.10;;;0.40;;
77726;SDS011;68312;53.502;10.030;2023-07-20T13:28:28;1.33;;;0.43;;
77726;SDS011;68312;53.502;10.030;2023-07-20T13:30:53;2.50;;;0.50;;
77726;SDS011;68312;53.502;10.030;2023-07-20T13:33:19;1.35;;;0.40;;
77726;SDS011;68312;53.502;10.030;2023-07-20T13:35:44;3.95;;;0.50;;
77726;SDS011;68312;53.502;10.030;2023-07-20T13:38:09;2.42;;;0.40;;
77726;SDS011;68312;53.502;10.030;2023-07-20T13:40:35;1.45;;;0.60;;
77726;SDS011;68312;53.502;10.030;2023-07-20T13:43:01;1.65;;;0.50;;
77726;SDS011;68312;53.502;10.030;2023-07-20T13:45:27;1.88;;;0.40;;
77726;SDS011;68312;53.502;10.030;2023-07-20T13:47:52;3.35;;;0.50;;
77726;SDS011;68312;53.502;10.030;2023-07-20T13:50:18;3.40;;;0.70;;
77726;SDS011;68312;53.502;10.030;2023-07-20T13:52:43;1.80;;;0.63;;
77726;SDS011;68312;53.502;10.030;2023-07-20T13:58:50;1.38;;;0.43;;
77726;SDS011;68312;53.502;10.030;2023-07-20T14:01:16;3.05;;;0.60;;
77726;SDS011;68312;53.502;10.030;2023-07-20T14:03:42;3.38;;;0.70;;
77726;SDS011;68312;53.502;10.030;2023-07-20T14:06:08;2.80;;;0.57;;
77726;SDS011;68312;53.502;10.030;2023-07-20T14:08:34;2.20;;;0.57;;
77726;SDS011;68312;53.502;10.030;2023-07-20T14:10:59;2.35;;;0.68;;
77726;SDS011;68312;53.502;10.030;2023-07-20T14:13:24;3.10;;;1.13;;
77726;SDS011;68312;53.502;10.030;2023-07-20T14:15:50;1.88;;;0.60;;
77726;SDS011;68312;53.502;10.030;2023-07-20T14:18:15;4.05;;;0.60;;
77726;SDS011;68312;53.502;10.030;2023-07-20T14:24:22;2.00;;;0.50;;
77726;SDS011;68312;53.502;10.030;2023-07-20T14:26:47;2.38;;;0.40;;
77726;SDS011;68312;53.502;10.030;2023-07-20T14:29:13;2.60;;;0.50;;
77726;SDS011;68312;53.502;10.030;2023-07-20T14:31:39;2.85;;;0.63;;
77726;SDS011;68312;53.502;10.030;2023-07-20T14:34:04;3.90;;;0.65;;
77726;SDS011;68312;53.502;10.030;2023-07-20T14:36:30;2.67;;;0.65;;
77726;SDS011;68312;53.502;10.030;2023-07-20T14:38:55;2.10;;;0.60;;
77726;SDS011;68312;53.502;10.030;2023-07-20T14:41:21;6.05;;;0.82;;
77726;SDS011;68312;53.502;10.030;2023-07-20T14:46:43;2.67;;;0.60;;
77726;SDS011;68312;53.502;10.030;2023-07-20T14:49:08;2.55;;;0.60;;
77726;SDS011;68312;53.502;10.030;2023-07-20T14:51:34;1.67;;;0.55;;
77726;SDS011;68312;53.502;10.030;2023-07-20T14:54:01;1.27;;;0.47;;
77726;SDS011;68312;53.502;10.030;2023-07-20T14:56:27;1.25;;;0.50;;
77726;SDS011;68312;53.502;10.030;2023-07-20T14:58:52;3.65;;;1.00;;
77726;SDS011;68312;53.502;10.030;2023-07-20T15:01:17;2.80;;;0.65;;
77726;SDS011;68312;53.502;10.030;2023-07-20T15:03:43;1.42;;;0.45;;
77726;SDS011;68312;53.502;10.030;2023-07-20T15:06:11;1.98;;;0.70;;
77726;SDS011;68312;53.502;10.030;2023-07-20T15:08:37;3.38;;;0.77;;
77726;SDS011;68312;53.502;10.030;2023-07-20T15:11:02;3.38;;;0.80;;
77726;SDS011;68312;53.502;10.030;2023-07-20T15:19:59;1.80;;;0.55;;
77726;SDS011;68312;53.502;10.030;2023-07-20T15:22:24;2.65;;;0.85;;
77726;SDS011;68312;53.502;10.030;2023-07-20T15:24:50;2.28;;;0.93;;
77726;SDS011;68312;53.502;10.030;2023-07-20T15:27:16;3.00;;;0.77;;
77726;SDS011;68312;53.502;10.030;2023-07-20T15:29:42;1.88;;;0.60;;
77726;SDS011;68312;53.502;10.030;2023-07-20T15:32:09;2.45;;;0.70;;
77726;SDS011;68312;53.502;10.030;2023-07-20T15:34:35;2.67;;;0.75;;
77726;SDS011;68312;53.502;10.030;2023-07-20T15:37:00;3.45;;;0.60;;
77726;SDS011;68312;53.502;10.030;2023-07-20T15:39:25;1.83;;;0.80;;
77726;SDS011;68312;53.502;10.030;2023-07-20T15:41:52;3.03;;;0.82;;